Time;durP1;ratioP1;P1;durP2;ratioP2;P2;SDS_P1;SDS_P2;PMS_P1;PMS_P2;Temp;Humidity;BMP_temperature;BMP_pressure;BME280_temperature;BME280_humidity;BME280_pressure;Samples;Min_cycle;Max_cycle;Signal;HPM_P1;HPM_P2
2022/03/14 15:54:36;;;;;;;21.57;11.12;;;;;;;14.29;22.18;100375.34;1820649;79;23000;-48
2022/03/14 15:57:04;;;;;;;20.57;10.35;;;;;;;14.09;22.05;100373.27;1794752;79;21592;-43
2022/03/14 15:59:31;;;;;;;19.57;9.38;;;;;;;13.94;21.90;100370.97;1794726;80;21066;-51
2022/03/14 16:01:56;;;;;;;31.23;10.40;;;;;;;13.87;21.93;100377.98;1794963;80;21024;-41
2022/03/14 16:04:22;;;;;;;20.48;10.32;;;;;;;13.71;22.09;100374.78;1794723;80;20968;-52
2022/03/14 16:06:48;;;;;;;20.20;10.20;;;;;;;13.54;22.21;100373.48;1794792;80;21611;-48
2022/03/14 16:09:15;;;;;;;21.77;11.05;;;;;;;13.39;22.36;100383.88;1794728;80;20980;-43
2022/03/14 16:11:42;;;;;;;19.57;10.25;;;;;;;13.25;22.85;100381.03;1794846;80;21015;-50
2022/03/14 16:14:13;;;;;;;14.03;8.55;;;;;;;13.09;23.01;100389.30;1794814;80;21003;-44
2022/03/14 16:16:38;;;;;;;28.45;10.95;;;;;;;12.99;22.59;100380.51;1793659;80;20980;-46
2022/03/14 16:19:08;;;;;;;24.07;10.55;;;;;;;12.94;22.69;100386.94;1794729;80;21560;-51
2022/03/14 16:21:35;;;;;;;22.25;11.60;;;;;;;12.81;22.95;100374.31;1794653;80;20977;-46
2022/03/14 16:24:04;;;;;;;;;;;;;;;12.72;22.96;100371.27;1797241;80;20969;-47
2022/03/14 16:26:33;;;;;;;28.15;11.18;;;;;;;12.59;24.41;100374.47;1794625;80;20096;-47
2022/03/14 16:28:58;;;;;;;21.85;12.18;;;;;;;12.49;23.17;100366.11;1794305;80;20972;-44
2022/03/14 16:31:24;;;;;;;32.35;16.23;;;;;;;12.42;23.48;100377.02;1763932;80;21540;-47
2022/03/14 16:33:50;;;;;;;39.13;19.05;;;;;;;12.31;24.46;100380.14;1794658;80;21029;-49
2022/03/14 16:36:16;;;;;;;55.83;25.52;;;;;;;12.18;25.01;100374.56;1794520;80;20968;-41
2022/03/14 16:38:41;;;;;;;39.85;23.07;;;;;;;12.04;25.82;100375.63;1794618;80;21050;-41
2022/03/14 16:41:10;;;;;;;47.62;24.05;;;;;;;11.93;26.54;100379.20;1794717;80;21054;-44
2022/03/14 16:43:36;;;;;;;53.48;24.52;;;;;;;11.81;27.03;100372.20;1794393;80;21050;-50
2022/03/14 16:46:03;;;;;;;63.55;31.05;;;;;;;11.68;27.75;100381.56;1793603;80;21068;-47
2022/03/14 16:48:29;;;;;;;74.40;36.95;;;;;;;11.56;28.21;100384.23;1794694;80;21000;-47
2022/03/14 16:50:55;;;;;;;76.95;34.92;;;;;;;11.45;28.48;100384.67;1794665;79;20968;-47
2022/03/14 16:53:22;;;;;;;91.72;31.87;;;;;;;11.31;28.89;100379.12;1788990;80;21020;-49
2022/03/14 16:55:48;;;;;;;67.67;29.72;;;;;;;11.21;29.41;100384.38;1780413;80;20993;-44
2022/03/14 16:58:14;;;;;;;73.05;32.98;;;;;;;11.10;29.79;100388.77;1780415;80;20969;-42
2022/03/14 17:00:42;;;;;;;62.08;30.20;;;;;;;11.00;29.91;100394.83;1780406;80;20996;-45
2022/03/14 17:03:07;;;;;;;63.78;27.70;;;;;;;10.90;30.82;100399.61;1779495;80;21017;-48
2022/03/14 17:05:34;;;;;;;52.93;23.50;;;;;;;10.82;31.04;100408.70;1779431;80;21548;-46
2022/03/14 17:08:00;;;;;;;43.17;23.22;;;;;;;10.73;31.64;100402.02;1779321;80;21060;-41
2022/03/14 17:10:35;;;;;;;46.90;21.82;;;;;;;10.66;31.00;100409.74;1778937;80;21090;-41
2022/03/14 17:13:08;;;;;;;44.63;22.00;;;;;;;10.54;31.54;100409.76;1780503;80;21080;-44
2022/03/14 17:15:39;;;;;;;41.05;20.15;;;;;;;10.48;31.14;100407.38;1780606;80;21001;-45
2022/03/14 17:18:06;;;;;;;43.35;20.00;;;;;;;10.43;31.16;100413.25;1777254;80;21052;-50
2022/03/14 17:20:34;;;;;;;38.65;21.10;;;;;;;10.34;31.61;100416.59;1780126;80;21040;-45
2022/03/14 17:23:03;;;;;;;36.95;19.07;;;;;;;10.31;31.54;100416.70;1780317;80;21021;-46
2022/03/14 17:25:30;;;;;;;40.10;19.27;;;;;;;10.27;31.61;100416.39;1780518;80;20995;-45
2022/03/14 17:27:56;;;;;;;36.87;19.60;;;;;;;10.21;31.68;100424.50;1780679;80;21025;-46
2022/03/14 17:30:22;;;;;;;32.60;17.85;;;;;;;10.12;31.72;100420.89;1779316;80;21033;-45
2022/03/14 17:32:48;;;;;;;46.25;20.27;;;;;;;10.08;31.99;100422.77;1779894;80;21009;-46
2022/03/14 17:35:14;;;;;;;39.98;19.20;;;;;;;10.02;32.16;100423.43;1780417;80;21041;-41
2022/03/14 17:37:40;;;;;;;43.87;21.25;;;;;;;9.94;32.24;100423.70;1779869;80;21021;-45
2022/03/14 17:40:09;;;;;;;37.53;18.80;;;;;;;9.90;32.43;100428.67;1780474;80;21522;-45
2022/03/14 17:42:35;;;;;;;39.85;18.32;;;;;;;9.86;32.50;100427.03;1780394;80;21028;-44
2022/03/14 17:45:04;;;;;;;38.73;19.10;;;;;;;9.82;32.78;100433.31;1780455;80;21462;-51
2022/03/14 17:47:33;;;;;;;38.25;19.10;;;;;;;9.80;32.52;100434.23;1780441;80;20997;-48
2022/03/14 17:49:58;;;;;;;51.65;22.40;;;;;;;9.72;32.72;100431.46;1780505;80;21016;-45
2022/03/14 17:52:25;;;;;;;40.08;22.07;;;;;;;9.66;32.64;100442.16;1780385;80;21035;-43
2022/03/14 17:54:51;;;;;;;43.50;22.65;;;;;;;9.63;32.64;100437.02;1787772;80;21039;-47
2022/03/14 17:57:19;;;;;;;41.42;23.18;;;;;;;9.58;32.82;100436.70;1788672;80;21019;-44
2022/03/14 17:59:45;;;;;;;54.15;23.57;;;;;;;9.52;33.36;100435.59;1788737;80;21606;-44
2022/03/14 18:02:11;;;;;;;44.10;23.38;;;;;;;9.48;33.66;100441.86;1788652;80;20956;-45
2022/03/14 18:04:38;;;;;;;51.18;22.15;;;;;;;9.48;33.43;100444.48;1788634;80;21027;-47
2022/03/14 18:07:05;;;;;;;47.73;22.00;;;;;;;9.44;33.39;100439.38;1788749;80;21023;-49
2022/03/14 18:09:32;;;;;;;52.45;21.52;;;;;;;9.43;33.26;100442.46;1788824;80;21036;-44
2022/03/14 18:11:58;;;;;;;52.78;23.20;;;;;;;9.38;33.67;100441.28;1751273;82;21004;-44
2022/03/14 18:14:24;;;;;;;48.20;21.75;;;;;;;9.30;35.14;100446.39;1751270;82;20973;-46
2022/03/14 18:16:50;;;;;;;54.65;22.85;;;;;;;9.28;34.47;100452.12;1751312;82;21612;-46
2022/03/14 18:19:16;;;;;;;51.90;23.75;;;;;;;9.22;34.11;100455.37;1751258;82;21521;-42
2022/03/14 18:21:42;;;;;;;43.45;21.80;;;;;;;9.17;33.83;100454.64;1751498;82;21826;-39
2022/03/14 18:24:08;;;;;;;48.85;23.02;;;;;;;9.16;33.76;100458.16;1751167;82;20997;-52
2022/03/14 18:26:34;;;;;;;65.27;25.57;;;;;;;9.09;34.15;100455.31;1751565;82;21009;-48
2022/03/14 18:29:01;;;;;;;50.60;24.07;;;;;;;9.03;34.26;100462.08;1751336;82;21474;-48
2022/03/14 18:31:28;;;;;;;55.40;24.10;;;;;;;8.99;34.41;100460.00;1751259;82;21487;-47
2022/03/14 18:34:08;;;;;;;54.70;25.25;;;;;;;8.93;34.62;100463.24;1751321;82;21008;-47
2022/03/14 18:36:34;;;;;;;53.20;25.90;;;;;;;8.84;34.95;100464.37;1750143;82;21048;-48
2022/03/14 18:39:03;;;;;;;57.43;25.00;;;;;;;8.81;34.78;100468.41;1751393;82;21490;-42
2022/03/14 18:41:29;;;;;;;49.60;25.72;;;;;;;8.79;35.39;100469.77;1751347;82;21001;-48
2022/03/14 18:43:55;;;;;;;48.45;26.57;;;;;;;8.76;35.38;100470.31;1751221;82;20981;-45
2022/03/14 18:46:21;;;;;;;77.97;32.13;;;;;;;8.69;34.96;100469.61;1751169;82;21125;-42
2022/03/14 18:48:46;;;;;;;72.15;31.30;;;;;;;8.63;35.17;100469.80;1751175;82;21040;-50
2022/03/14 18:51:12;;;;;;;64.75;28.60;;;;;;;8.61;35.45;100471.61;1751340;82;20977;-46
2022/03/14 18:53:42;;;;;;;59.00;29.45;;;;;;;8.52;36.80;100469.25;1748684;82;21033;-43
2022/03/14 18:56:08;;;;;;;77.80;31.52;;;;;;;8.45;36.40;100473.33;1743331;82;21013;-47
2022/03/14 18:58:35;;;;;;;63.08;29.25;;;;;;;8.40;36.18;100475.64;1743404;82;20977;-43
2022/03/14 19:01:00;;;;;;;68.75;30.27;;;;;;;8.34;36.42;100476.67;1743255;82;21486;-47
2022/03/14 19:03:26;;;;;;;73.55;32.30;;;;;;;8.28;36.37;100470.30;1743351;82;21024;-43
2022/03/14 19:05:54;;;;;;;76.50;32.42;;;;;;;8.21;37.09;100480.53;1743257;82;20997;-47
2022/03/14 19:08:21;;;;;;;64.03;31.95;;;;;;;8.16;36.70;100475.40;1742848;82;21026;-44
2022/03/14 19:10:47;;;;;;;66.40;32.23;;;;;;;8.13;37.19;100473.31;1748566;82;21011;-43
2022/03/14 19:13:13;;;;;;;63.28;32.90;;;;;;;8.07;37.47;100479.57;1747252;82;21071;-44
2022/03/14 19:15:41;;;;;;;65.67;32.95;;;;;;;8.02;37.41;100470.54;1747369;82;21023;-43
2022/03/14 19:18:06;;;;;;;77.30;35.08;;;;;;;8.01;37.43;100481.91;1722228;83;21505;-44
2022/03/14 19:20:34;;;;;;;79.00;37.15;;;;;;;7.96;37.77;100482.92;1742715;82;20968;-47
2022/03/14 19:23:00;;;;;;;83.33;37.93;;;;;;;7.91;37.81;100476.48;1732796;82;21106;-43
2022/03/14 19:25:26;;;;;;;70.22;34.65;;;;;;;7.88;38.08;100477.89;1763583;80;21080;-45
2022/03/14 19:27:52;;;;;;;86.53;33.98;;;;;;;7.86;37.71;100475.77;1776243;80;20972;-43
2022/03/14 19:30:18;;;;;;;78.45;34.40;;;;;;;7.77;38.29;100474.23;1779825;80;20969;-48
2022/03/14 19:32:44;;;;;;;74.90;35.97;;;;;;;7.74;38.06;100473.44;1779743;80;21020;-47
2022/03/14 19:35:15;;;;;;;77.78;35.15;;;;;;;7.72;38.12;100471.31;1779855;80;21264;-44
2022/03/14 19:37:39;;;;;;;;;;;;;;;7.67;37.97;100467.48;1781893;80;20981;-48
2022/03/14 19:40:06;;;;;;;83.55;34.95;;;;;;;7.62;39.76;100467.61;1778239;80;20104;-46
2022/03/14 19:42:32;;;;;;;77.53;34.40;;;;;;;7.61;37.92;100462.41;1743907;80;21051;-39
2022/03/14 19:44:58;;;;;;;74.53;32.95;;;;;;;7.59;37.71;100462.90;1740897;82;21019;-44
2022/03/14 19:47:26;;;;;;;64.10;32.60;;;;;;;7.57;37.59;100460.31;1741068;82;21007;-43
2022/03/14 19:49:52;;;;;;;67.42;32.95;;;;;;;7.53;37.85;100461.30;1740920;82;21007;-46
2022/03/14 19:52:18;;;;;;;69.30;30.80;;;;;;;7.54;37.60;100463.45;1741112;82;21003;-46
2022/03/14 19:54:46;;;;;;;64.95;32.03;;;;;;;7.52;37.53;100462.17;1744362;82;21015;-45
2022/03/14 19:57:11;;;;;;;;;;;;;;;7.49;37.25;100467.05;1748775;82;20987;-44
2022/03/14 19:59:37;;;;;;;61.65;29.75;;;;;;;7.42;38.97;100464.59;1746514;81;20526;-49
2022/03/14 20:02:03;;;;;;;59.35;28.67;;;;;;;7.42;37.87;100467.20;1746570;82;21492;-49
2022/03/14 20:04:29;;;;;;;65.42;29.82;;;;;;;7.41;37.45;100461.58;1746471;82;21049;-49
2022/03/14 20:06:56;;;;;;;65.62;30.17;;;;;;;7.40;37.06;100462.45;1746319;82;21027;-43
2022/03/14 20:09:22;;;;;;;63.98;30.82;;;;;;;7.38;37.07;100461.18;1746497;82;21011;-46
2022/03/14 20:11:49;;;;;;;62.03;30.95;;;;;;;7.38;37.00;100470.80;1746309;82;21615;-46
2022/03/14 20:14:17;;;;;;;;;;;;;;;7.37;37.01;100467.75;1749139;82;21503;-49
2022/03/14 20:16:43;;;;;;;56.55;28.75;;;;;;;7.30;38.01;100465.30;1746290;82;20110;-45
2022/03/14 20:19:09;;;;;;;64.00;28.92;;;;;;;7.29;37.33;100466.20;1746353;82;20995;-48
2022/03/14 20:21:35;;;;;;;63.60;31.02;;;;;;;7.29;36.84;100466.20;1746390;82;21018;-45
2022/03/14 20:24:05;;;;;;;59.85;26.20;;;;;;;7.27;36.82;100460.13;1746673;81;20991;-42
2022/03/14 20:26:31;;;;;;;61.25;26.00;;;;;;;7.23;37.25;100457.63;1746173;81;21026;-41
2022/03/14 20:28:57;;;;;;;62.67;27.87;;;;;;;7.26;38.18;100461.48;1746740;82;21183;-47
2022/03/14 20:31:24;;;;;;;59.35;27.67;;;;;;;7.24;36.67;100452.78;1746615;81;20992;-49
2022/03/14 20:33:49;;;;;;;55.65;28.12;;;;;;;7.20;37.04;100455.92;1746822;82;21030;-47
2022/03/14 20:36:17;;;;;;;57.03;27.77;;;;;;;7.16;37.47;100456.05;1746666;82;20999;-52
2022/03/14 20:38:44;;;;;;;53.25;26.15;;;;;;;7.18;36.59;100451.63;1746628;82;20967;-47
2022/03/14 20:41:09;;;;;;;59.85;28.05;;;;;;;7.16;36.78;100450.81;1746611;81;21042;-46
2022/03/14 20:43:35;;;;;;;67.00;29.30;;;;;;;7.15;36.68;100450.38;1746515;81;21399;-46
2022/03/14 20:46:03;;;;;;;61.63;26.57;;;;;;;7.18;36.96;100454.25;1746617;82;20986;-41
2022/03/14 20:48:31;;;;;;;60.23;27.17;;;;;;;7.18;40.31;100451.17;1746796;82;21481;-47
2022/03/14 20:50:57;;;;;;;;;;;;;;;7.20;36.28;100459.00;1749161;82;20999;-42
2022/03/14 20:53:22;;;;;;;64.45;27.80;;;;;;;7.15;37.22;100455.62;1746518;82;20099;-44
2022/03/14 20:55:54;;;;;;;49.55;24.35;;;;;;;7.18;36.46;100457.72;1746505;82;21003;-47
2022/03/14 20:58:19;;;;;;;58.68;26.73;;;;;;;7.15;36.64;100451.69;1746220;82;20964;-47
2022/03/14 21:00:46;;;;;;;61.00;26.17;;;;;;;7.10;36.39;100457.89;1746538;81;21047;-49
2022/03/14 21:03:12;;;;;;;53.17;26.60;;;;;;;7.08;36.49;100462.30;1746736;82;20987;-42
2022/03/14 21:05:46;;;;;;;59.48;27.73;;;;;;;7.05;36.51;100454.52;1746531;82;21414;-40
2022/03/14 21:08:11;;;;;;;57.67;25.57;;;;;;;7.04;36.33;100459.35;1744813;82;21456;-39
2022/03/14 21:10:37;;;;;;;54.33;25.60;;;;;;;6.97;36.40;100457.77;1746530;82;21047;-41
2022/03/14 21:13:05;;;;;;;59.77;26.37;;;;;;;6.95;36.61;100453.44;1746645;82;21480;-50
2022/03/14 21:15:32;;;;;;;63.35;28.45;;;;;;;6.95;36.31;100457.36;1746540;82;21472;-42
2022/03/14 21:18:00;;;;;;;71.80;31.57;;;;;;;6.90;36.70;100463.56;1746607;82;21003;-47
2022/03/14 21:20:32;;;;;;;65.47;29.40;;;;;;;6.87;36.50;100454.92;1746491;82;20987;-48
2022/03/14 21:22:59;;;;;;;61.98;29.20;;;;;;;6.83;36.62;100459.35;1746522;82;21460;-50
2022/03/14 21:25:25;;;;;;;65.45;27.58;;;;;;;6.77;37.32;100454.27;1746681;82;21015;-48
2022/03/14 21:27:53;;;;;;;58.73;27.47;;;;;;;6.75;36.82;100459.09;1746748;82;21031;-46
2022/03/14 21:30:19;;;;;;;67.35;28.77;;;;;;;6.72;37.13;100454.80;1746719;82;21179;-47
2022/03/14 21:32:46;;;;;;;62.90;30.37;;;;;;;6.67;36.83;100459.27;1746794;82;21459;-43
2022/03/14 21:35:14;;;;;;;66.25;29.90;;;;;;;6.65;37.44;100454.06;1746652;82;21652;-45
2022/03/14 21:37:47;;;;;;;69.35;30.05;;;;;;;6.64;36.77;100461.50;1746556;81;20999;-42
2022/03/14 21:40:15;;;;;;;78.75;32.13;;;;;;;6.62;36.78;100464.59;1746601;81;20964;-49
2022/03/14 21:42:42;;;;;;;73.97;31.55;;;;;;;6.55;37.16;100463.00;1746518;81;20975;-43
2022/03/14 21:45:12;;;;;;;99.17;32.38;;;;;;;6.50;37.19;100464.38;1771272;80;21525;-45
2022/03/14 21:47:41;;;;;;;79.07;32.00;;;;;;;6.50;37.68;100467.45;1785841;80;20988;-41
2022/03/14 21:50:11;;;;;;;68.07;30.80;;;;;;;6.45;37.60;100455.77;1785753;80;21008;-47
2022/03/14 21:52:37;;;;;;;66.62;29.55;;;;;;;6.44;37.08;100456.67;1785574;80;20988;-48
2022/03/14 21:55:07;;;;;;;62.93;28.67;;;;;;;6.41;37.10;100455.88;1787223;80;21052;-50
2022/03/14 21:57:33;;;;;;;68.20;29.95;;;;;;;6.36;37.27;100453.79;1788460;80;21492;-39
2022/03/14 21:59:59;;;;;;;62.23;29.27;;;;;;;6.36;37.06;100455.09;1788467;80;20969;-40
2022/03/14 22:02:25;;;;;;;64.47;31.05;;;;;;;6.32;37.13;100449.07;1788435;80;21027;-47
2022/03/14 22:04:51;;;;;;;68.52;30.70;;;;;;;6.28;37.32;100451.34;1788770;80;20953;-46
2022/03/14 22:07:17;;;;;;;69.82;30.32;;;;;;;6.25;37.40;100452.69;1788490;80;21024;-45
2022/03/14 22:09:43;;;;;;;66.82;30.88;;;;;;;6.19;37.72;100452.81;1788635;80;20996;-43
2022/03/14 22:12:10;;;;;;;65.87;31.20;;;;;;;6.17;37.48;100449.34;1788557;80;20988;-38
2022/03/14 22:14:37;;;;;;;71.92;32.13;;;;;;;6.12;37.75;100448.99;1788548;80;21000;-39
2022/03/14 22:17:06;;;;;;;63.68;30.80;;;;;;;6.09;37.96;100445.16;1788518;80;21065;-47
2022/03/14 22:19:32;;;;;;;75.65;33.30;;;;;;;6.07;37.52;100448.20;1788546;80;21004;-45
2022/03/14 22:21:59;;;;;;;73.07;32.47;;;;;;;6.03;37.81;100453.08;1788772;80;21588;-43
2022/03/14 22:24:26;;;;;;;72.67;31.00;;;;;;;6.00;38.07;100456.19;1788603;80;21011;-43
2022/03/14 22:26:52;;;;;;;73.55;31.52;;;;;;;5.99;38.04;100461.86;1788733;80;20980;-46
2022/03/14 22:29:18;;;;;;;70.65;32.67;;;;;;;5.94;38.50;100463.20;1788331;80;21819;-44
2022/03/14 22:31:44;;;;;;;75.45;33.58;;;;;;;5.91;38.00;100463.70;1788545;80;21028;-48
2022/03/14 22:34:11;;;;;;;76.82;37.23;;;;;;;5.89;37.98;100474.16;1788480;80;21000;-47
2022/03/14 22:36:39;;;;;;;75.32;33.58;;;;;;;5.87;38.15;100473.33;1788549;80;20976;-46
2022/03/14 22:39:04;;;;;;;;;;;;;;;5.83;38.50;100473.42;1790594;80;21800;-50
2022/03/14 22:41:30;;;;;;;72.47;32.40;;;;;;;5.81;39.91;100473.91;1788696;80;20120;-44
2022/03/14 22:43:55;;;;;;;79.87;33.55;;;;;;;5.81;38.28;100463.46;1788402;80;20991;-46
2022/03/14 22:46:22;;;;;;;67.65;31.10;;;;;;;5.77;38.35;100470.03;1788538;80;21470;-43
2022/03/14 22:48:47;;;;;;;75.52;33.55;;;;;;;5.73;38.87;100473.59;1788445;80;20999;-45
2022/03/14 22:51:13;;;;;;;73.65;31.52;;;;;;;5.69;38.65;100471.89;1788516;80;20984;-48
2022/03/14 22:53:45;;;;;;;69.35;32.17;;;;;;;5.63;38.86;100479.83;1788599;80;20984;-47
2022/03/14 22:56:08;;;;;;;66.72;29.90;;;;;;;5.65;38.74;100479.81;1778944;80;21095;-45
2022/03/14 22:58:34;;;;;;;65.85;27.45;;;;;;;5.62;38.62;100475.93;1780120;80;21832;-41
2022/03/14 23:01:03;;;;;;;57.73;26.68;;;;;;;5.62;38.13;100487.67;1780186;80;21787;-43
2022/03/14 23:06:14;;;;;;;53.68;25.68;;;;;;;5.60;38.09;100491.61;1780187;80;21043;-43
2022/03/14 23:08:40;;;;;;;61.80;26.62;;;;;;;5.59;38.00;100492.52;1780140;80;21565;-46
2022/03/14 23:11:28;;;;;;;50.05;25.17;;;;;;;5.58;38.00;100493.38;1780112;80;21477;-48
2022/03/14 23:13:46;;;;;;;63.42;26.65;;;;;;;5.58;38.11;100492.97;1774671;80;20957;-47
2022/03/14 23:16:15;;;;;;;61.63;27.32;;;;;;;5.57;38.03;100487.77;1779037;80;21032;-48
2022/03/14 23:18:46;;;;;;;54.27;27.93;;;;;;;5.53;37.90;100484.77;1780084;80;21044;-51
2022/03/14 23:21:17;;;;;;;65.17;28.55;;;;;;;5.55;38.00;100489.55;1780048;80;21446;-48
2022/03/14 23:23:41;;;;;;;57.67;26.17;;;;;;;5.54;38.08;100486.05;1779707;80;20973;-47
2022/03/14 23:26:08;;;;;;;67.70;28.67;;;;;;;5.52;37.91;100486.97;1780064;80;21016;-44
2022/03/14 23:28:35;;;;;;;63.07;28.27;;;;;;;5.51;38.07;100487.42;1780477;80;21000;-45
2022/03/14 23:31:01;;;;;;;60.50;28.55;;;;;;;5.49;37.96;100488.31;1780377;80;21476;-46
2022/03/14 23:33:26;;;;;;;68.05;27.67;;;;;;;5.48;38.21;100492.67;1780182;80;21044;-40
2022/03/14 23:35:53;;;;;;;69.40;30.97;;;;;;;5.43;38.32;100487.11;1780081;80;20985;-41
2022/03/14 23:38:20;;;;;;;56.13;27.70;;;;;;;5.41;38.43;100494.10;1780316;80;20949;-46
2022/03/14 23:40:46;;;;;;;64.32;28.10;;;;;;;5.40;38.41;100480.17;1780165;80;21434;-45
2022/03/14 23:43:12;;;;;;;58.98;28.57;;;;;;;5.41;38.37;100483.67;1780311;80;21028;-41
2022/03/14 23:45:39;;;;;;;61.73;26.93;;;;;;;5.38;38.42;100482.83;1780204;80;20969;-47
2022/03/14 23:48:05;;;;;;;62.83;27.13;;;;;;;5.36;38.74;100488.48;1780442;80;20973;-44
2022/03/14 23:50:31;;;;;;;55.33;28.45;;;;;;;5.36;38.45;100492.40;1780089;80;21044;-45
2022/03/14 23:52:59;;;;;;;65.42;28.35;;;;;;;5.33;38.54;100487.67;1780226;80;21078;-41
2022/03/14 23:55:24;;;;;;;;;;;;;;;5.34;38.64;100492.02;1786331;80;21569;-47
2022/03/14 23:57:50;;;;;;;55.05;25.60;;;;;;;5.26;40.05;100493.44;1788473;80;20096;-50
